createdAt,value
2018-05-13T00:00:20.380Z,18.86
2018-05-13T00:02:48.524Z,18.88
2018-05-13T00:05:16.717Z,18.89
2018-05-13T00:07:44.825Z,18.88
2018-05-13T00:10:12.926Z,18.86
2018-05-13T00:12:41.074Z,18.78
2018-05-13T00:15:09.184Z,18.85
2018-05-13T00:17:37.322Z,18.88
2018-05-13T00:20:05.473Z,18.87
2018-05-13T00:22:33.607Z,18.82
2018-05-13T00:25:05.041Z,18.92
2018-05-13T00:27:34.783Z,18.98
2018-05-13T00:30:03.219Z,19.00
2018-05-13T00:32:31.359Z,18.98
2018-05-13T00:34:59.497Z,18.94
2018-05-13T00:37:27.628Z,18.92
2018-05-13T00:39:55.751Z,18.93
2018-05-13T00:42:23.867Z,18.95
2018-05-13T00:44:51.998Z,18.96
2018-05-13T00:47:20.114Z,19.00
2018-05-13T00:49:48.256Z,18.97
2018-05-13T00:52:16.395Z,19.00
2018-05-13T00:54:54.466Z,19.03
2018-05-13T00:57:22.579Z,19.01
2018-05-13T00:59:50.723Z,18.90
2018-05-13T01:02:18.857Z,18.91
2018-05-13T01:04:46.968Z,18.84
2018-05-13T01:07:15.109Z,18.88
2018-05-13T01:09:43.249Z,18.82
2018-05-13T01:12:11.381Z,18.90
2018-05-13T01:14:39.490Z,18.92
2018-05-13T01:17:07.623Z,18.81
2018-05-13T01:19:35.742Z,18.82
2018-05-13T01:22:03.862Z,18.86
2018-05-13T01:24:31.999Z,18.81
2018-05-13T01:27:00.132Z,18.77
2018-05-13T01:29:28.268Z,18.76
2018-05-13T01:31:56.416Z,18.74
2018-05-13T01:34:27.847Z,18.70
2018-05-13T01:36:55.973Z,18.65
2018-05-13T01:39:24.109Z,18.58
2018-05-13T01:41:53.030Z,18.51
2018-05-13T01:44:21.138Z,18.46
2018-05-13T01:46:49.277Z,18.40
2018-05-13T01:49:17.399Z,18.39
2018-05-13T01:51:45.529Z,18.35
2018-05-13T01:54:13.660Z,18.31
2018-05-13T01:56:41.824Z,18.30
2018-05-13T01:59:09.935Z,18.26
2018-05-13T02:01:38.060Z,18.25
2018-05-13T02:04:06.174Z,18.20
2018-05-13T02:06:34.301Z,18.19
2018-05-13T02:09:02.433Z,18.18
2018-05-13T02:11:30.543Z,18.17
2018-05-13T02:13:58.684Z,18.13
2018-05-13T02:16:26.828Z,18.11
2018-05-13T02:18:57.181Z,17.80
2018-05-13T02:21:25.356Z,17.82
2018-05-13T02:23:53.437Z,17.91
2018-05-13T02:26:21.561Z,17.93
2018-05-13T02:28:49.666Z,17.88
2018-05-13T02:31:17.838Z,17.87
2018-05-13T02:33:45.967Z,17.81
2018-05-13T02:36:14.054Z,17.80
2018-05-13T02:38:42.188Z,17.78
2018-05-13T02:41:10.328Z,17.76
2018-05-13T02:43:38.468Z,17.78
2018-05-13T02:46:06.587Z,17.71
2018-05-13T02:48:34.736Z,17.73
2018-05-13T02:51:03.252Z,17.68
2018-05-13T02:53:31.395Z,17.61
2018-05-13T02:55:59.522Z,17.53
2018-05-13T02:58:27.645Z,17.49
2018-05-13T03:00:55.783Z,17.43
2018-05-13T03:03:23.895Z,17.42
2018-05-13T03:05:52.030Z,17.33
2018-05-13T03:08:20.169Z,17.29
2018-05-13T03:10:48.298Z,17.26
2018-05-13T03:13:16.431Z,17.31
2018-05-13T03:15:44.739Z,17.34
2018-05-13T03:18:12.861Z,17.32
2018-05-13T03:20:41.012Z,17.26
2018-05-13T03:23:09.163Z,17.18
2018-05-13T03:25:37.300Z,17.06
2018-05-13T03:28:05.421Z,17.09
2018-05-13T03:30:33.556Z,17.14
2018-05-13T03:33:01.697Z,17.13
2018-05-13T03:35:29.891Z,17.17
2018-05-13T03:37:58.109Z,17.17
2018-05-13T03:40:26.332Z,17.15
2018-05-13T03:42:54.637Z,17.13
2018-05-13T03:45:23.041Z,17.10
2018-05-13T03:47:51.142Z,16.94
2018-05-13T03:50:19.265Z,17.02
2018-05-13T03:52:47.394Z,16.96
2018-05-13T03:55:15.510Z,16.83
2018-05-13T03:57:43.660Z,16.85
2018-05-13T04:00:11.803Z,16.81
2018-05-13T04:02:39.930Z,16.84
2018-05-13T04:05:08.049Z,16.57
2018-05-13T04:07:53.918Z,16.70
2018-05-13T04:10:33.945Z,16.70
2018-05-13T04:13:13.814Z,16.78
2018-05-13T04:15:41.992Z,16.88
2018-05-13T04:18:10.437Z,16.94
2018-05-13T04:20:38.570Z,16.97
2018-05-13T04:23:06.715Z,16.98
2018-05-13T04:25:34.898Z,16.96
2018-05-13T04:28:03.102Z,16.99
2018-05-13T04:30:31.255Z,16.99
2018-05-13T04:33:00.095Z,16.95
2018-05-13T04:35:28.509Z,17.01
2018-05-13T04:37:56.644Z,16.98
2018-05-13T04:40:24.766Z,17.05
2018-05-13T04:42:52.904Z,17.10
2018-05-13T04:45:21.037Z,17.15
2018-05-13T04:47:49.175Z,17.13
2018-05-13T04:50:17.329Z,17.06
2018-05-13T04:52:45.475Z,17.06
2018-05-13T04:55:13.600Z,17.09
2018-05-13T04:57:41.831Z,17.08
2018-05-13T05:00:09.980Z,17.03
2018-05-13T05:02:38.118Z,16.93
2018-05-13T05:05:06.260Z,16.85
2018-05-13T05:07:34.381Z,16.98
2018-05-13T05:10:02.537Z,17.06
2018-05-13T05:12:30.647Z,17.06
2018-05-13T05:14:58.784Z,17.03
2018-05-13T05:17:26.919Z,17.00
2018-05-13T05:19:55.049Z,17.03
2018-05-13T05:22:23.181Z,16.93
2018-05-13T05:24:51.315Z,17.02
2018-05-13T05:27:19.438Z,17.08
2018-05-13T05:29:47.577Z,17.07
2018-05-13T05:32:15.711Z,17.08
2018-05-13T05:34:43.840Z,17.12
2018-05-13T05:37:11.976Z,17.18
2018-05-13T05:39:40.083Z,17.23
2018-05-13T05:42:08.289Z,17.22
2018-05-13T05:44:36.417Z,17.30
2018-05-13T05:47:04.563Z,17.32
2018-05-13T05:49:32.698Z,17.35
2018-05-13T05:52:00.806Z,17.37
2018-05-13T05:54:28.936Z,17.22
2018-05-13T05:56:57.109Z,17.16
2018-05-13T05:59:25.252Z,17.34
2018-05-13T06:01:53.344Z,17.33
2018-05-13T06:04:21.513Z,17.45
2018-05-13T06:06:49.631Z,17.44
2018-05-13T06:09:17.738Z,17.44
2018-05-13T06:11:45.893Z,17.52
2018-05-13T06:14:14.018Z,17.34
2018-05-13T06:16:42.546Z,17.38
2018-05-13T06:19:10.709Z,17.47
2018-05-13T06:21:38.838Z,17.35
2018-05-13T06:24:06.969Z,17.31
2018-05-13T06:26:35.095Z,17.35
2018-05-13T06:29:03.248Z,17.19
2018-05-13T06:31:35.088Z,17.21
2018-05-13T06:34:03.252Z,17.40
2018-05-13T06:36:31.396Z,17.36
2018-05-13T06:38:59.530Z,17.18
2018-05-13T06:41:27.685Z,17.44
2018-05-13T06:43:55.811Z,17.56
2018-05-13T06:46:23.937Z,17.71
2018-05-13T06:48:52.236Z,17.67
2018-05-13T06:51:20.424Z,17.76
2018-05-13T06:53:48.477Z,17.94
2018-05-13T06:56:16.617Z,17.84
2018-05-13T06:58:44.768Z,18.04
2018-05-13T07:01:12.954Z,17.94
2018-05-13T07:03:41.107Z,17.98
2018-05-13T07:06:09.231Z,18.04
2018-05-13T07:08:37.354Z,18.01
2018-05-13T07:11:05.512Z,18.04
2018-05-13T07:13:36.566Z,18.03
2018-05-13T07:16:04.825Z,18.12
2018-05-13T07:18:32.961Z,18.13
2018-05-13T07:21:01.083Z,18.23
2018-05-13T07:23:29.194Z,18.27
2018-05-13T07:25:57.321Z,18.30
2018-05-13T07:28:25.465Z,18.10
2018-05-13T07:30:53.607Z,18.17
2018-05-13T07:33:21.741Z,18.09
2018-05-13T07:35:49.854Z,18.17
2018-05-13T07:38:17.967Z,18.24
2018-05-13T07:40:46.098Z,18.24
2018-05-13T07:43:14.261Z,18.35
2018-05-13T07:45:42.386Z,18.44
2018-05-13T07:48:10.751Z,18.45
2018-05-13T07:50:39.512Z,18.38
2018-05-13T07:53:07.669Z,18.18
2018-05-13T07:55:35.842Z,18.25
2018-05-13T07:58:03.989Z,18.41
2018-05-13T08:00:32.136Z,18.50
2018-05-13T08:03:00.253Z,18.43
2018-05-13T08:05:28.483Z,18.35
2018-05-13T08:07:56.626Z,18.44
2018-05-13T08:10:24.759Z,18.33
2018-05-13T08:12:52.888Z,18.02
2018-05-13T08:15:21.021Z,17.85
2018-05-13T08:17:49.165Z,17.84
2018-05-13T08:20:17.360Z,18.01
2018-05-13T08:22:45.403Z,18.07
2018-05-13T08:25:13.576Z,18.25
2018-05-13T08:27:41.716Z,18.25
2018-05-13T08:30:09.850Z,18.26
2018-05-13T08:32:37.984Z,18.26
2018-05-13T08:35:06.102Z,18.01
2018-05-13T08:37:34.223Z,17.87
2018-05-13T08:40:02.368Z,17.98
2018-05-13T08:42:30.506Z,18.13
2018-05-13T08:44:58.615Z,18.00
2018-05-13T08:47:27.045Z,17.97
2018-05-13T08:49:55.196Z,17.78
2018-05-13T08:52:23.321Z,17.93
2018-05-13T08:54:51.444Z,17.98
2018-05-13T08:57:19.572Z,17.79
2018-05-13T08:59:47.697Z,17.69
2018-05-13T09:02:15.828Z,17.80
2018-05-13T09:04:43.947Z,17.82
2018-05-13T09:07:14.968Z,17.87
2018-05-13T09:09:43.110Z,17.82
2018-05-13T09:12:11.238Z,17.66
2018-05-13T09:14:39.397Z,17.66
2018-05-13T09:17:07.534Z,17.67
2018-05-13T09:19:35.672Z,17.68
2018-05-13T09:22:03.787Z,17.66
2018-05-13T09:24:32.184Z,17.75
2018-05-13T09:27:00.351Z,17.62
2018-05-13T09:29:28.522Z,17.61
2018-05-13T09:31:56.679Z,17.38
2018-05-13T09:34:24.809Z,17.59
2018-05-13T09:36:52.924Z,17.33
2018-05-13T09:39:21.295Z,17.46
2018-05-13T09:41:49.408Z,17.50
2018-05-13T09:44:17.527Z,17.27
2018-05-13T09:46:45.877Z,17.41
2018-05-13T09:49:14.013Z,17.43
2018-05-13T09:51:42.137Z,17.41
2018-05-13T09:54:10.272Z,17.42
2018-05-13T09:56:38.431Z,17.44
2018-05-13T09:59:06.582Z,17.53
2018-05-13T10:01:34.932Z,17.33
2018-05-13T10:04:03.131Z,17.44
2018-05-13T10:06:31.197Z,17.42
2018-05-13T10:08:59.335Z,17.49
2018-05-13T10:11:27.482Z,17.56
2018-05-13T10:13:55.614Z,17.65
2018-05-13T10:16:23.765Z,17.50
2018-05-13T10:18:51.892Z,17.16
2018-05-13T10:21:20.016Z,16.83
2018-05-13T10:23:48.401Z,16.84
2018-05-13T10:26:16.525Z,17.25
2018-05-13T10:28:44.662Z,17.62
2018-05-13T10:31:12.821Z,17.16
2018-05-13T10:33:40.949Z,17.26
2018-05-13T10:36:09.090Z,17.03
2018-05-13T10:38:37.226Z,16.96
2018-05-13T10:41:05.347Z,16.82
2018-05-13T10:43:33.480Z,16.87
2018-05-13T10:46:01.615Z,16.97
2018-05-13T10:48:29.737Z,16.81
2018-05-13T10:50:57.872Z,16.65
2018-05-13T10:53:26.009Z,16.68
2018-05-13T10:55:54.130Z,16.42
2018-05-13T10:58:22.257Z,16.30
2018-05-13T11:00:50.386Z,16.16
2018-05-13T11:03:18.517Z,16.14
2018-05-13T11:05:46.641Z,16.17
2018-05-13T11:08:14.796Z,16.16
2018-05-13T11:10:42.917Z,16.24
2018-05-13T11:13:11.060Z,16.51
2018-05-13T11:15:39.196Z,16.64
2018-05-13T11:18:07.314Z,16.36
2018-05-13T11:20:35.485Z,16.42
2018-05-13T11:23:03.581Z,16.51
2018-05-13T11:25:31.722Z,16.45
2018-05-13T11:27:59.844Z,16.51
2018-05-13T11:30:28.003Z,16.45
2018-05-13T11:32:56.125Z,16.58
2018-05-13T11:35:24.237Z,16.42
2018-05-13T11:37:52.384Z,16.49
2018-05-13T11:40:20.514Z,16.51
2018-05-13T11:42:49.043Z,16.55
2018-05-13T11:45:17.182Z,16.59
2018-05-13T11:47:45.309Z,16.52
2018-05-13T11:50:13.438Z,16.40
2018-05-13T11:52:41.554Z,16.41
2018-05-13T11:55:09.668Z,16.44
2018-05-13T11:57:37.801Z,16.44
2018-05-13T12:00:05.931Z,16.39
2018-05-13T12:02:34.047Z,16.45
2018-05-13T12:05:02.178Z,16.48
2018-05-13T12:07:30.325Z,16.56
2018-05-13T12:09:58.440Z,16.53
2018-05-13T12:12:26.592Z,16.42
2018-05-13T12:14:54.708Z,16.31
2018-05-13T12:17:22.821Z,16.36
2018-05-13T12:19:50.953Z,16.33
2018-05-13T12:22:19.153Z,16.24
2018-05-13T12:24:47.263Z,16.31
2018-05-13T12:27:15.405Z,16.39
2018-05-13T12:29:43.569Z,16.31
2018-05-13T12:32:11.714Z,16.41
2018-05-13T12:34:39.858Z,16.51
2018-05-13T12:37:08.018Z,16.52
2018-05-13T12:39:36.122Z,16.39
2018-05-13T12:42:04.257Z,16.29
2018-05-13T12:44:32.407Z,16.17
2018-05-13T12:47:00.528Z,16.29
2018-05-13T12:49:28.650Z,16.32
2018-05-13T12:51:56.788Z,16.33
2018-05-13T12:54:24.895Z,16.32
2018-05-13T12:56:53.040Z,16.34
2018-05-13T12:59:21.393Z,16.42
2018-05-13T13:01:49.503Z,16.34
2018-05-13T13:04:17.641Z,16.34
2018-05-13T13:06:45.801Z,16.32
2018-05-13T13:09:13.948Z,16.40
2018-05-13T13:11:42.018Z,16.36
2018-05-13T13:14:10.150Z,16.39
2018-05-13T13:16:38.282Z,16.40
2018-05-13T13:19:06.399Z,16.22
2018-05-13T13:21:34.525Z,16.37
2018-05-13T13:24:02.638Z,16.41
2018-05-13T13:26:30.773Z,16.43
2018-05-13T13:28:58.923Z,16.25
2018-05-13T13:31:27.934Z,16.23
2018-05-13T13:33:56.057Z,16.38
2018-05-13T13:36:24.193Z,16.38
2018-05-13T13:38:52.324Z,16.35
2018-05-13T13:41:20.453Z,16.42
2018-05-13T13:43:48.614Z,16.47
2018-05-13T13:46:16.772Z,16.36
2018-05-13T13:48:44.976Z,16.39
2018-05-13T13:51:13.163Z,16.36
2018-05-13T13:53:41.312Z,16.44
2018-05-13T13:56:09.597Z,16.46
2018-05-13T13:58:37.738Z,16.47
2018-05-13T14:01:05.889Z,16.45
2018-05-13T14:03:34.030Z,16.26
2018-05-13T14:06:02.157Z,16.21
2018-05-13T14:08:30.289Z,16.31
2018-05-13T14:10:58.434Z,16.38
2018-05-13T14:13:26.568Z,16.38
2018-05-13T14:15:54.696Z,16.25
2018-05-13T14:18:22.869Z,16.29
2018-05-13T14:20:54.310Z,16.29
2018-05-13T14:23:22.450Z,16.23
2018-05-13T14:25:50.591Z,16.21
2018-05-13T14:28:18.736Z,16.16
2018-05-13T14:30:46.857Z,16.16
2018-05-13T14:33:14.988Z,16.10
2018-05-13T14:35:43.132Z,16.15
2018-05-13T14:38:11.268Z,16.27
2018-05-13T14:40:39.399Z,16.26
2018-05-13T14:43:07.545Z,16.17
2018-05-13T14:45:35.651Z,16.19
2018-05-13T14:48:03.779Z,16.26
2018-05-13T14:50:32.135Z,16.15
2018-05-13T14:53:00.241Z,16.16
2018-05-13T14:55:28.381Z,16.23
2018-05-13T14:57:56.513Z,16.23
2018-05-13T15:00:24.664Z,16.26
2018-05-13T15:02:52.874Z,16.22
2018-05-13T15:05:21.040Z,16.29
2018-05-13T15:07:49.224Z,16.36
2018-05-13T15:10:17.444Z,16.23
2018-05-13T15:12:45.640Z,16.20
2018-05-13T15:15:13.768Z,16.29
2018-05-13T15:17:41.884Z,16.20
2018-05-13T15:20:13.238Z,16.18
2018-05-13T15:22:41.391Z,16.18
2018-05-13T15:25:09.502Z,16.27
2018-05-13T15:27:37.657Z,16.30
2018-05-13T15:30:05.800Z,16.17
2018-05-13T15:32:33.921Z,16.21
2018-05-13T15:35:02.096Z,16.31
2018-05-13T15:37:30.209Z,16.35
2018-05-13T15:39:58.443Z,16.34
2018-05-13T15:42:26.661Z,16.28
2018-05-13T15:44:54.723Z,16.28
2018-05-13T15:47:22.848Z,16.27
2018-05-13T15:49:50.992Z,16.30
2018-05-13T15:52:19.105Z,16.27
2018-05-13T15:54:47.289Z,16.15
2018-05-13T15:57:15.429Z,16.30
2018-05-13T15:59:43.559Z,16.07
2018-05-13T16:02:12.585Z,16.12
2018-05-13T16:04:40.699Z,16.20
2018-05-13T16:07:08.953Z,16.28
2018-05-13T16:09:37.060Z,16.30
2018-05-13T16:12:05.240Z,16.26
2018-05-13T16:14:33.371Z,16.29
2018-05-13T16:17:01.497Z,16.35
2018-05-13T16:19:29.651Z,16.19
2018-05-13T16:21:57.773Z,16.16
2018-05-13T16:24:25.928Z,16.11
2018-05-13T16:26:54.232Z,16.19
2018-05-13T16:29:22.391Z,16.29
2018-05-13T16:31:50.517Z,16.29
2018-05-13T16:34:18.661Z,16.32
2018-05-13T16:36:46.789Z,16.39
2018-05-13T16:39:14.898Z,16.35
2018-05-13T16:41:43.019Z,16.37
2018-05-13T16:44:11.139Z,16.34
2018-05-13T16:46:39.274Z,16.34
2018-05-13T16:49:07.410Z,16.37
2018-05-13T16:51:35.542Z,16.39
2018-05-13T16:54:06.939Z,16.45
2018-05-13T16:56:35.058Z,16.44
2018-05-13T16:59:06.969Z,16.37
2018-05-13T17:01:35.134Z,16.29
2018-05-13T17:04:03.223Z,16.33
2018-05-13T17:06:31.378Z,16.32
2018-05-13T17:08:59.502Z,16.35
2018-05-13T17:11:27.637Z,16.32
2018-05-13T17:13:55.770Z,16.33
2018-05-13T17:16:23.882Z,16.33
2018-05-13T17:18:52.295Z,16.37
2018-05-13T17:21:20.423Z,16.28
2018-05-13T17:23:48.541Z,16.27
2018-05-13T17:26:16.660Z,16.26
2018-05-13T17:28:44.793Z,16.32
2018-05-13T17:31:12.902Z,16.35
2018-05-13T17:33:41.038Z,16.40
2018-05-13T17:36:09.170Z,16.39
2018-05-13T17:38:37.303Z,16.36
2018-05-13T17:41:05.427Z,16.35
2018-05-13T17:43:33.563Z,16.28
2018-05-13T17:46:01.728Z,16.26
2018-05-13T17:48:29.875Z,16.37
2018-05-13T17:50:57.991Z,16.35
2018-05-13T17:53:26.117Z,16.23
2018-05-13T17:55:54.271Z,16.29
2018-05-13T17:58:22.379Z,16.32
2018-05-13T18:00:50.586Z,16.34
2018-05-13T18:03:18.750Z,16.33
2018-05-13T18:05:46.792Z,16.38
2018-05-13T18:08:14.931Z,16.41
2018-05-13T18:10:43.069Z,16.46
2018-05-13T18:13:11.205Z,16.27
2018-05-13T18:15:39.335Z,16.31
2018-05-13T18:18:07.473Z,16.35
2018-05-13T18:20:35.633Z,16.28
2018-05-13T18:23:03.762Z,16.39
2018-05-13T18:25:31.904Z,16.42
2018-05-13T18:27:59.999Z,16.27
2018-05-13T18:30:28.115Z,16.31
2018-05-13T18:32:56.557Z,16.32
2018-05-13T18:35:24.671Z,16.30
2018-05-13T18:37:52.815Z,16.32
2018-05-13T18:40:20.936Z,16.33
2018-05-13T18:42:49.083Z,16.28
2018-05-13T18:45:19.241Z,16.29
2018-05-13T18:47:47.417Z,16.32
2018-05-13T18:50:15.545Z,16.34
2018-05-13T18:52:43.648Z,16.22
2018-05-13T18:55:11.833Z,16.27
2018-05-13T18:57:39.959Z,16.29
2018-05-13T19:00:08.102Z,16.23
2018-05-13T19:02:36.946Z,16.17
2018-05-13T19:05:05.072Z,16.12
2018-05-13T19:07:33.183Z,16.07
2018-05-13T19:10:01.331Z,16.05
2018-05-13T19:12:29.456Z,15.95
2018-05-13T19:14:57.611Z,16.03
2018-05-13T19:17:25.756Z,16.02
2018-05-13T19:19:53.889Z,15.99
2018-05-13T19:22:22.011Z,15.98
2018-05-13T19:24:50.204Z,15.92
2018-05-13T19:27:18.260Z,15.93
2018-05-13T19:29:46.412Z,16.01
2018-05-13T19:32:14.549Z,16.00
2018-05-13T19:34:42.663Z,15.95
2018-05-13T19:37:10.784Z,15.93
2018-05-13T19:39:39.152Z,16.00
2018-05-13T19:42:07.283Z,16.07
2018-05-13T19:44:35.427Z,16.08
2018-05-13T19:47:03.570Z,16.05
2018-05-13T19:49:31.705Z,16.06
2018-05-13T19:51:59.844Z,16.03
2018-05-13T19:54:28.010Z,16.07
2018-05-13T19:56:56.130Z,16.10
2018-05-13T19:59:24.254Z,15.99
2018-05-13T20:01:53.080Z,16.05
2018-05-13T20:04:21.183Z,15.97
2018-05-13T20:06:49.325Z,15.90
2018-05-13T20:09:17.563Z,16.02
2018-05-13T20:11:45.630Z,16.10
2018-05-13T20:14:13.765Z,16.09
2018-05-13T20:16:41.930Z,16.07
2018-05-13T20:19:10.093Z,16.07
2018-05-13T20:21:38.229Z,16.06
2018-05-13T20:24:06.376Z,16.08
2018-05-13T20:26:34.508Z,16.05
2018-05-13T20:29:02.615Z,15.96
2018-05-13T20:31:33.971Z,15.92
2018-05-13T20:34:02.111Z,15.95
2018-05-13T20:36:30.222Z,15.87
2018-05-13T20:38:58.350Z,15.77
2018-05-13T20:41:26.495Z,15.74
2018-05-13T20:43:54.617Z,15.83
2018-05-13T20:46:22.754Z,15.79
2018-05-13T20:48:50.936Z,15.69
2018-05-13T20:51:19.214Z,15.74
2018-05-13T20:53:47.265Z,15.87
2018-05-13T20:56:15.432Z,15.87
2018-05-13T20:58:43.636Z,15.83
2018-05-13T21:01:11.834Z,15.80
2018-05-13T21:03:40.039Z,15.79
2018-05-13T21:06:08.162Z,15.59
2018-05-13T21:08:36.307Z,15.69
2018-05-13T21:11:04.418Z,15.73
2018-05-13T21:13:32.545Z,15.73
2018-05-13T21:16:00.741Z,15.77
2018-05-13T21:18:28.818Z,15.81
2018-05-13T21:20:56.956Z,15.80
2018-05-13T21:23:25.306Z,15.78
2018-05-13T21:25:53.441Z,15.83
2018-05-13T21:28:21.561Z,15.89
2018-05-13T21:30:49.786Z,15.88
2018-05-13T21:33:17.897Z,15.90
2018-05-13T21:35:46.011Z,15.89
2018-05-13T21:38:14.139Z,15.91
2018-05-13T21:40:42.280Z,15.84
2018-05-13T21:43:10.421Z,15.78
2018-05-13T21:45:38.601Z,15.82
2018-05-13T21:48:06.724Z,15.85
2018-05-13T21:50:34.863Z,15.79
2018-05-13T21:53:03.005Z,15.74
2018-05-13T21:55:31.140Z,15.79
2018-05-13T21:57:59.279Z,15.87
2018-05-13T22:00:27.410Z,15.86
2018-05-13T22:02:55.548Z,15.86
2018-05-13T22:05:23.689Z,15.86
2018-05-13T22:07:51.857Z,15.69
2018-05-13T22:10:19.955Z,15.66
2018-05-13T22:12:48.084Z,15.67
2018-05-13T22:15:16.221Z,15.63
2018-05-13T22:17:44.364Z,15.63
2018-05-13T22:20:12.486Z,15.63
2018-05-13T22:22:40.656Z,15.62
2018-05-13T22:25:08.755Z,15.63
2018-05-13T22:27:37.057Z,15.63
2018-05-13T22:30:05.204Z,15.62
2018-05-13T22:32:33.350Z,15.63
2018-05-13T22:35:01.469Z,15.68
2018-05-13T22:37:29.613Z,15.68
2018-05-13T22:39:57.724Z,15.65
2018-05-13T22:42:25.888Z,15.58
2018-05-13T22:44:54.054Z,15.52
2018-05-13T22:47:22.214Z,15.51
2018-05-13T22:49:50.325Z,15.54
2018-05-13T22:52:18.544Z,15.51
2018-05-13T22:54:46.602Z,15.63
2018-05-13T22:57:14.750Z,15.62
2018-05-13T22:59:42.889Z,15.66
2018-05-13T23:02:11.040Z,15.50
2018-05-13T23:04:39.150Z,15.42
2018-05-13T23:07:07.297Z,15.51
2018-05-13T23:09:35.415Z,15.46
2018-05-13T23:12:03.551Z,15.41
2018-05-13T23:14:31.919Z,15.44
2018-05-13T23:17:00.038Z,15.51
2018-05-13T23:19:28.172Z,15.46
2018-05-13T23:21:56.311Z,15.34
2018-05-13T23:24:24.445Z,15.23
2018-05-13T23:26:52.572Z,15.28
2018-05-13T23:29:20.990Z,15.40
2018-05-13T23:31:49.147Z,15.40
2018-05-13T23:34:17.292Z,15.07
2018-05-13T23:36:45.433Z,15.16
2018-05-13T23:39:13.666Z,15.20
2018-05-13T23:41:41.793Z,15.25
2018-05-13T23:44:09.941Z,15.12
2018-05-13T23:46:38.083Z,15.05
2018-05-13T23:49:06.235Z,15.00
2018-05-13T23:51:34.462Z,14.92
2018-05-13T23:54:02.521Z,14.98
2018-05-13T23:56:30.662Z,14.97
2018-05-13T23:58:58.778Z,14.96
